MYT24R LEMH-EGBB
Flight info
| Callsign | MYT24R |
|---|---|
| Flight time | 2h 3m |
| Altitude | 32000 |
| Route | MEROS N853 LUMAS DCT SOFFY DCT MRM DCT MTL DCT ETREK DCT MADOT DCT MOPEM DCT CACHI DCT AVLON DCT OKRIX DCT BRY DCT CLM DCT KOPOR DCT ABNUR DCT DIMAL DCT ALESO T420 HEMEL |
| Aircraft | A321/M-SDE3FGHIRWY/LB1 |
Departure
| Time | 2026-04-14 09:50 |
|---|---|
| Airport | Menorca Airport (LEMH) |
Arrival
| Time | 2026-04-14 11:54 |
|---|---|
| Airport | Birmingham Airport (EGBB) |
| Time | Latitude | Longitude | Altitude | Speed | Heading |
|---|---|---|---|---|---|
| 2026-04-14 09:21 | 39.86392 | 4.22239 | 295 ft | 0 kts | 52° |
| 2026-04-14 09:45 | 39.86386 | 4.22276 | 303 ft | 10 kts | 129° |
| 2026-04-14 09:45 | 39.86286 | 4.22280 | 288 ft | 17 kts | 189° |
| 2026-04-14 09:46 | 39.86192 | 4.22241 | 291 ft | 12 kts | 230° |
| 2026-04-14 09:46 | 39.86192 | 4.22141 | 292 ft | 14 kts | 277° |
| 2026-04-14 09:46 | 39.86101 | 4.22071 | 294 ft | 22 kts | 188° |
| 2026-04-14 09:46 | 39.85935 | 4.22036 | 296 ft | 24 kts | 189° |
| 2026-04-14 09:47 | 39.85774 | 4.22003 | 295 ft | 23 kts | 189° |
| 2026-04-14 09:47 | 39.85752 | 4.21998 | 295 ft | 23 kts | 189° |
| 2026-04-14 09:48 | 39.85624 | 4.21973 | 288 ft | 24 kts | 188° |
| 2026-04-14 09:48 | 39.85462 | 4.21941 | 284 ft | 23 kts | 189° |
| 2026-04-14 09:48 | 39.85304 | 4.21905 | 281 ft | 23 kts | 190° |
| 2026-04-14 09:48 | 39.85155 | 4.21877 | 281 ft | 20 kts | 188° |
| 2026-04-14 09:49 | 39.85066 | 4.21802 | 280 ft | 15 kts | 268° |
| 2026-04-14 09:49 | 39.85114 | 4.21702 | 284 ft | 11 kts | 310° |
| 2026-04-14 09:49 | 39.85184 | 4.21645 | 286 ft | 13 kts | 0° |
| 2026-04-14 09:49 | 39.85383 | 4.21685 | 286 ft | 62 kts | 8° |
| 2026-04-14 09:50 | 39.86062 | 4.21822 | 304 ft | 132 kts | 9° |
| 2026-04-14 09:50 | 39.87131 | 4.22035 | 584 ft | 164 kts | 4° |
| 2026-04-14 09:50 | 39.88245 | 4.22250 | 1569 ft | 162 kts | 5° |
| 2026-04-14 09:50 | 39.89360 | 4.22475 | 2426 ft | 163 kts | 4° |
| 2026-04-14 09:51 | 39.90543 | 4.22718 | 2634 ft | 182 kts | 4° |
| 2026-04-14 09:51 | 39.91854 | 4.22997 | 2793 ft | 202 kts | 5° |
| 2026-04-14 09:51 | 39.93319 | 4.23315 | 2935 ft | 225 kts | 5° |
| 2026-04-14 09:51 | 39.94946 | 4.23666 | 3263 ft | 245 kts | 6° |
| 2026-04-14 09:52 | 39.96644 | 4.24036 | 3934 ft | 250 kts | 6° |
| 2026-04-14 09:52 | 39.98343 | 4.24406 | 4694 ft | 251 kts | 6° |
| 2026-04-14 09:52 | 39.99508 | 4.24660 | 5219 ft | 252 kts | 6° |
| 2026-04-14 09:52 | 40.01807 | 4.25157 | 6152 ft | 255 kts | 5° |
| 2026-04-14 09:53 | 40.03567 | 4.25562 | 6790 ft | 258 kts | 6° |
| 2026-04-14 09:53 | 40.05337 | 4.25982 | 7420 ft | 260 kts | 7° |
| 2026-04-14 09:53 | 40.06548 | 4.26272 | 7816 ft | 263 kts | 7° |
| 2026-04-14 09:53 | 40.08351 | 4.26705 | 8454 ft | 265 kts | 8° |
| 2026-04-14 09:54 | 40.10151 | 4.27136 | 9016 ft | 268 kts | 8° |
| 2026-04-14 09:54 | 40.12008 | 4.27579 | 9563 ft | 273 kts | 9° |
| 2026-04-14 09:54 | 40.13898 | 4.28029 | 10101 ft | 278 kts | 9° |
| 2026-04-14 09:54 | 40.15840 | 4.28492 | 10360 ft | 292 kts | 10° |
| 2026-04-14 09:55 | 40.17906 | 4.28985 | 10489 ft | 310 kts | 10° |
| 2026-04-14 09:55 | 40.20094 | 4.29508 | 10616 ft | 327 kts | 10° |
| 2026-04-14 09:55 | 40.22359 | 4.30052 | 10741 ft | 343 kts | 10° |
| 2026-04-14 09:55 | 40.24755 | 4.30626 | 10969 ft | 354 kts | 10° |
| 2026-04-14 09:56 | 40.27199 | 4.31208 | 11395 ft | 359 kts | 10° |
| 2026-04-14 09:56 | 40.29677 | 4.31797 | 11872 ft | 363 kts | 11° |
| 2026-04-14 09:56 | 40.32172 | 4.32390 | 12348 ft | 366 kts | 11° |
| 2026-04-14 09:56 | 40.34701 | 4.32993 | 12803 ft | 370 kts | 11° |
| 2026-04-14 09:57 | 40.37246 | 4.33602 | 13259 ft | 373 kts | 11° |
| 2026-04-14 09:57 | 40.39822 | 4.34220 | 13697 ft | 377 kts | 11° |
| 2026-04-14 09:57 | 40.42386 | 4.34836 | 14101 ft | 380 kts | 11° |
| 2026-04-14 09:57 | 40.45004 | 4.35465 | 14504 ft | 383 kts | 11° |
| 2026-04-14 09:58 | 40.47635 | 4.36096 | 14915 ft | 385 kts | 11° |
| 2026-04-14 09:58 | 40.50278 | 4.36731 | 15317 ft | 387 kts | 11° |
| 2026-04-14 09:58 | 40.52941 | 4.37369 | 15709 ft | 390 kts | 11° |
| 2026-04-14 09:58 | 40.55620 | 4.38008 | 16093 ft | 392 kts | 11° |
| 2026-04-14 09:59 | 40.58309 | 4.38648 | 16457 ft | 394 kts | 11° |
| 2026-04-14 09:59 | 40.61016 | 4.39289 | 16812 ft | 396 kts | 11° |
| 2026-04-14 09:59 | 40.63699 | 4.39925 | 17144 ft | 398 kts | 11° |
| 2026-04-14 09:59 | 40.66432 | 4.40580 | 17493 ft | 399 kts | 11° |
| 2026-04-14 10:00 | 40.69178 | 4.41242 | 17835 ft | 401 kts | 11° |
| 2026-04-14 10:00 | 40.71931 | 4.41904 | 18174 ft | 403 kts | 11° |
| 2026-04-14 10:00 | 40.74704 | 4.42569 | 18496 ft | 405 kts | 11° |
| 2026-04-14 10:00 | 40.77485 | 4.43239 | 18793 ft | 407 kts | 11° |
| 2026-04-14 10:01 | 40.80276 | 4.43910 | 19091 ft | 408 kts | 11° |
| 2026-04-14 10:01 | 40.83076 | 4.44583 | 19402 ft | 410 kts | 12° |
| 2026-04-14 10:01 | 40.85891 | 4.45260 | 19713 ft | 411 kts | 11° |
| 2026-04-14 10:01 | 40.88713 | 4.45943 | 20014 ft | 413 kts | 12° |
| 2026-04-14 10:02 | 40.91518 | 4.46620 | 20327 ft | 415 kts | 12° |
| 2026-04-14 10:02 | 40.94380 | 4.47312 | 20464 ft | 421 kts | 12° |
| 2026-04-14 10:02 | 40.97294 | 4.48017 | 20592 ft | 428 kts | 12° |
| 2026-04-14 10:02 | 41.00246 | 4.48730 | 20717 ft | 434 kts | 12° |
| 2026-04-14 10:03 | 41.03237 | 4.49458 | 20846 ft | 439 kts | 12° |
| 2026-04-14 10:03 | 41.06263 | 4.50197 | 20970 ft | 445 kts | 12° |
| 2026-04-14 10:03 | 41.09326 | 4.50944 | 21130 ft | 449 kts | 12° |
| 2026-04-14 10:03 | 41.12403 | 4.51694 | 21368 ft | 451 kts | 12° |
| 2026-04-14 10:04 | 41.15457 | 4.52440 | 21616 ft | 453 kts | 12° |
| 2026-04-14 10:04 | 41.18570 | 4.53197 | 21891 ft | 454 kts | 12° |
| 2026-04-14 10:04 | 41.21686 | 4.53958 | 22125 ft | 456 kts | 12° |
| 2026-04-14 10:04 | 41.24813 | 4.54721 | 22375 ft | 457 kts | 12° |
| 2026-04-14 10:05 | 41.27953 | 4.55487 | 22612 ft | 459 kts | 12° |
| 2026-04-14 10:05 | 41.31103 | 4.56258 | 22821 ft | 460 kts | 12° |
| 2026-04-14 10:05 | 41.34266 | 4.57034 | 23031 ft | 462 kts | 12° |
| 2026-04-14 10:05 | 41.37433 | 4.57813 | 23226 ft | 463 kts | 12° |
| 2026-04-14 10:06 | 41.40613 | 4.58592 | 23422 ft | 465 kts | 12° |
| 2026-04-14 10:06 | 41.43765 | 4.59362 | 23593 ft | 466 kts | 12° |
| 2026-04-14 10:06 | 41.46970 | 4.60148 | 23743 ft | 467 kts | 12° |
| 2026-04-14 10:06 | 41.50187 | 4.60941 | 23883 ft | 468 kts | 12° |
| 2026-04-14 10:07 | 41.53392 | 4.61734 | 24015 ft | 469 kts | 12° |
| 2026-04-14 10:07 | 41.56612 | 4.62529 | 24144 ft | 470 kts | 12° |
| 2026-04-14 10:07 | 41.59829 | 4.63326 | 24263 ft | 471 kts | 12° |
| 2026-04-14 10:07 | 41.63017 | 4.64115 | 24387 ft | 472 kts | 11° |
| 2026-04-14 10:08 | 41.66250 | 4.64912 | 24510 ft | 472 kts | 12° |
| 2026-04-14 10:08 | 41.69487 | 4.65710 | 24625 ft | 473 kts | 12° |
| 2026-04-14 10:08 | 41.72724 | 4.66516 | 24745 ft | 473 kts | 13° |
| 2026-04-14 10:08 | 41.75903 | 4.67654 | 24861 ft | 472 kts | 17° |
| 2026-04-14 10:09 | 41.79057 | 4.68891 | 24984 ft | 473 kts | 17° |
| 2026-04-14 10:09 | 41.82222 | 4.70136 | 25107 ft | 473 kts | 17° |
| 2026-04-14 10:09 | 41.85379 | 4.71381 | 25221 ft | 473 kts | 17° |
| 2026-04-14 10:09 | 41.88548 | 4.72630 | 25340 ft | 473 kts | 17° |
| 2026-04-14 10:10 | 41.91705 | 4.73872 | 25467 ft | 474 kts | 17° |
| 2026-04-14 10:10 | 41.94872 | 4.75113 | 25587 ft | 474 kts | 17° |
| 2026-04-14 10:10 | 41.97994 | 4.76339 | 25709 ft | 474 kts | 17° |
| 2026-04-14 10:10 | 42.01167 | 4.77585 | 25842 ft | 474 kts | 17° |
| 2026-04-14 10:11 | 42.04333 | 4.78833 | 25959 ft | 474 kts | 17° |
| 2026-04-14 10:11 | 42.07499 | 4.80082 | 26087 ft | 474 kts | 17° |
| 2026-04-14 10:11 | 42.10668 | 4.81335 | 26220 ft | 474 kts | 17° |
| 2026-04-14 10:11 | 42.13802 | 4.82578 | 26353 ft | 474 kts | 17° |
| 2026-04-14 10:12 | 42.16959 | 4.83834 | 26483 ft | 473 kts | 17° |
| 2026-04-14 10:12 | 42.20122 | 4.85092 | 26619 ft | 473 kts | 17° |
| 2026-04-14 10:12 | 42.23284 | 4.86350 | 26746 ft | 473 kts | 17° |
| 2026-04-14 10:12 | 42.26448 | 4.87607 | 26882 ft | 473 kts | 16° |
| 2026-04-14 10:13 | 42.29602 | 4.88858 | 27021 ft | 473 kts | 16° |
| 2026-04-14 10:13 | 42.32759 | 4.90113 | 27162 ft | 473 kts | 17° |
| 2026-04-14 10:13 | 42.35909 | 4.91371 | 27287 ft | 472 kts | 17° |
| 2026-04-14 10:13 | 42.39064 | 4.92637 | 27422 ft | 472 kts | 17° |
| 2026-04-14 10:14 | 42.42219 | 4.93899 | 27565 ft | 472 kts | 16° |
| 2026-04-14 10:14 | 42.45376 | 4.95161 | 27688 ft | 472 kts | 16° |
| 2026-04-14 10:14 | 42.48532 | 4.96425 | 27823 ft | 472 kts | 16° |
| 2026-04-14 10:14 | 42.51677 | 4.97685 | 27956 ft | 472 kts | 16° |
| 2026-04-14 10:15 | 42.54795 | 4.98933 | 28080 ft | 472 kts | 16° |
| 2026-04-14 10:15 | 42.57942 | 5.00192 | 28226 ft | 471 kts | 16° |
| 2026-04-14 10:15 | 42.61097 | 5.01456 | 28359 ft | 471 kts | 16° |
| 2026-04-14 10:15 | 42.64243 | 5.02722 | 28494 ft | 471 kts | 16° |
| 2026-04-14 10:16 | 42.67387 | 5.03989 | 28634 ft | 471 kts | 16° |
| 2026-04-14 10:16 | 42.70536 | 5.05261 | 28772 ft | 471 kts | 16° |
| 2026-04-14 10:16 | 42.73674 | 5.06532 | 28909 ft | 470 kts | 16° |
| 2026-04-14 10:16 | 42.76779 | 5.07789 | 29048 ft | 470 kts | 16° |
| 2026-04-14 10:17 | 42.79919 | 5.09059 | 29192 ft | 470 kts | 16° |
| 2026-04-14 10:17 | 42.83055 | 5.10330 | 29328 ft | 469 kts | 16° |
| 2026-04-14 10:17 | 42.86191 | 5.11600 | 29474 ft | 469 kts | 16° |
| 2026-04-14 10:17 | 42.89325 | 5.12870 | 29607 ft | 469 kts | 16° |
| 2026-04-14 10:18 | 42.95576 | 5.15411 | 29901 ft | 468 kts | 16° |
| 2026-04-14 10:18 | 42.98654 | 5.16669 | 30039 ft | 467 kts | 16° |
| 2026-04-14 10:18 | 43.01775 | 5.17945 | 30158 ft | 467 kts | 16° |
| 2026-04-14 10:19 | 43.04888 | 5.19214 | 30279 ft | 466 kts | 16° |
| 2026-04-14 10:19 | 43.07998 | 5.20481 | 30402 ft | 466 kts | 16° |
| 2026-04-14 10:19 | 43.11109 | 5.21749 | 30525 ft | 465 kts | 16° |
| 2026-04-14 10:19 | 43.14216 | 5.23011 | 30646 ft | 465 kts | 16° |
| 2026-04-14 10:20 | 43.17324 | 5.24275 | 30768 ft | 464 kts | 16° |
| 2026-04-14 10:20 | 43.20382 | 5.25522 | 30900 ft | 464 kts | 15° |
| 2026-04-14 10:20 | 43.23474 | 5.26786 | 31038 ft | 463 kts | 16° |
| 2026-04-14 10:20 | 43.26559 | 5.28049 | 31176 ft | 462 kts | 15° |
| 2026-04-14 10:21 | 43.29645 | 5.29315 | 31321 ft | 462 kts | 15° |
| 2026-04-14 10:21 | 43.32733 | 5.30558 | 31459 ft | 460 kts | 13° |
| 2026-04-14 10:21 | 43.35846 | 5.31277 | 31595 ft | 458 kts | 3° |
| 2026-04-14 10:21 | 43.39028 | 5.31274 | 31736 ft | 457 kts | 354° |
| 2026-04-14 10:22 | 43.42156 | 5.30553 | 31904 ft | 454 kts | 345° |
| 2026-04-14 10:22 | 43.45164 | 5.29259 | 31972 ft | 452 kts | 341° |
| 2026-04-14 10:22 | 43.51129 | 5.26537 | 31976 ft | 451 kts | 341° |
| 2026-04-14 10:23 | 43.57095 | 5.23819 | 31973 ft | 451 kts | 341° |
| 2026-04-14 10:23 | 43.63048 | 5.21091 | 31974 ft | 450 kts | 341° |
| 2026-04-14 10:24 | 43.68959 | 5.18372 | 31971 ft | 450 kts | 341° |
| 2026-04-14 10:24 | 43.74908 | 5.15635 | 31967 ft | 450 kts | 341° |
| 2026-04-14 10:25 | 43.80859 | 5.12895 | 31988 ft | 450 kts | 341° |
| 2026-04-14 10:25 | 43.86762 | 5.10173 | 31999 ft | 450 kts | 341° |
| 2026-04-14 10:26 | 43.92703 | 5.07420 | 32005 ft | 450 kts | 341° |
| 2026-04-14 10:26 | 43.98642 | 5.04665 | 32007 ft | 450 kts | 341° |
| 2026-04-14 10:27 | 44.04584 | 5.01908 | 32033 ft | 450 kts | 341° |
| 2026-04-14 10:27 | 44.10518 | 4.99140 | 32042 ft | 449 kts | 341° |
| 2026-04-14 10:28 | 44.16410 | 4.96382 | 32044 ft | 449 kts | 341° |
| 2026-04-14 10:28 | 44.22336 | 4.93612 | 32042 ft | 449 kts | 341° |
| 2026-04-14 10:29 | 44.28260 | 4.90836 | 32042 ft | 448 kts | 341° |
| 2026-04-14 10:29 | 44.34173 | 4.88055 | 32040 ft | 448 kts | 341° |
| 2026-04-14 10:30 | 44.40084 | 4.85275 | 32044 ft | 448 kts | 341° |
| 2026-04-14 10:30 | 44.45998 | 4.82483 | 32049 ft | 448 kts | 341° |
| 2026-04-14 10:31 | 44.51879 | 4.79706 | 32059 ft | 449 kts | 341° |
| 2026-04-14 10:31 | 44.57902 | 4.77447 | 32064 ft | 448 kts | 351° |
| 2026-04-14 10:32 | 44.64087 | 4.76094 | 32080 ft | 449 kts | 351° |
| 2026-04-14 10:32 | 44.70229 | 4.74731 | 32094 ft | 450 kts | 351° |
| 2026-04-14 10:33 | 44.76419 | 4.73353 | 32108 ft | 450 kts | 351° |
| 2026-04-14 10:33 | 44.82623 | 4.71968 | 32116 ft | 451 kts | 351° |
| 2026-04-14 10:34 | 44.91908 | 4.69894 | 32119 ft | 452 kts | 351° |
| 2026-04-14 10:35 | 44.98126 | 4.68513 | 32125 ft | 453 kts | 351° |
| 2026-04-14 10:35 | 45.04369 | 4.67112 | 32121 ft | 454 kts | 350° |
| 2026-04-14 10:36 | 45.10617 | 4.65705 | 32126 ft | 454 kts | 351° |
| 2026-04-14 10:36 | 45.16844 | 4.64309 | 32124 ft | 455 kts | 351° |
| 2026-04-14 10:37 | 45.23125 | 4.62895 | 32131 ft | 456 kts | 350° |
| 2026-04-14 10:37 | 45.29366 | 4.61461 | 32136 ft | 457 kts | 350° |
| 2026-04-14 10:38 | 45.35646 | 4.60012 | 32151 ft | 458 kts | 350° |
| 2026-04-14 10:38 | 45.41958 | 4.58573 | 32154 ft | 458 kts | 350° |
| 2026-04-14 10:39 | 45.48269 | 4.57131 | 32158 ft | 459 kts | 350° |
| 2026-04-14 10:39 | 45.54545 | 4.55676 | 32157 ft | 460 kts | 350° |
| 2026-04-14 10:40 | 45.60888 | 4.54206 | 32158 ft | 461 kts | 350° |
| 2026-04-14 10:40 | 45.66161 | 4.52985 | 32155 ft | 462 kts | 350° |
| 2026-04-14 10:41 | 45.73543 | 4.51276 | 32162 ft | 463 kts | 350° |
| 2026-04-14 10:41 | 45.79905 | 4.49801 | 32157 ft | 463 kts | 350° |
| 2026-04-14 10:42 | 45.85213 | 4.48565 | 32164 ft | 464 kts | 350° |
| 2026-04-14 10:42 | 45.91606 | 4.47067 | 32171 ft | 465 kts | 350° |
| 2026-04-14 10:43 | 45.97973 | 4.45575 | 32173 ft | 466 kts | 350° |
| 2026-04-14 10:43 | 46.04401 | 4.44070 | 32176 ft | 467 kts | 350° |
| 2026-04-14 10:44 | 46.10790 | 4.42570 | 32178 ft | 468 kts | 350° |
| 2026-04-14 10:44 | 46.17234 | 4.41052 | 32179 ft | 469 kts | 350° |
| 2026-04-14 10:45 | 46.23682 | 4.39533 | 32186 ft | 470 kts | 350° |
| 2026-04-14 10:45 | 46.30103 | 4.37956 | 32174 ft | 471 kts | 348° |
| 2026-04-14 10:46 | 46.36489 | 4.35827 | 32182 ft | 471 kts | 345° |
| 2026-04-14 10:46 | 46.42845 | 4.33404 | 32185 ft | 471 kts | 344° |
| 2026-04-14 10:47 | 46.49180 | 4.31065 | 32199 ft | 472 kts | 345° |
| 2026-04-14 10:47 | 46.55579 | 4.28832 | 32198 ft | 472 kts | 346° |
| 2026-04-14 10:48 | 46.61977 | 4.26625 | 32204 ft | 472 kts | 345° |
| 2026-04-14 10:48 | 46.68377 | 4.24365 | 32204 ft | 472 kts | 345° |
| 2026-04-14 10:49 | 46.74730 | 4.22098 | 32208 ft | 473 kts | 345° |
| 2026-04-14 10:49 | 46.81130 | 4.19811 | 32198 ft | 473 kts | 345° |
| 2026-04-14 10:50 | 46.87547 | 4.17524 | 32199 ft | 474 kts | 345° |
| 2026-04-14 10:50 | 46.93971 | 4.15225 | 32202 ft | 475 kts | 345° |
| 2026-04-14 10:51 | 47.00398 | 4.12919 | 32206 ft | 475 kts | 345° |
| 2026-04-14 10:51 | 47.06770 | 4.10540 | 32200 ft | 475 kts | 340° |
| 2026-04-14 10:52 | 47.12913 | 4.06988 | 32204 ft | 475 kts | 336° |
| 2026-04-14 10:52 | 47.19060 | 4.03355 | 32198 ft | 476 kts | 336° |
| 2026-04-14 10:53 | 47.25209 | 3.99715 | 32203 ft | 477 kts | 336° |
| 2026-04-14 10:53 | 47.31373 | 3.96058 | 32201 ft | 478 kts | 336° |
| 2026-04-14 10:54 | 47.37504 | 3.92410 | 32206 ft | 478 kts | 336° |
| 2026-04-14 10:54 | 47.43687 | 3.88719 | 32203 ft | 479 kts | 336° |
| 2026-04-14 10:55 | 47.49891 | 3.85012 | 32208 ft | 480 kts | 336° |
| 2026-04-14 10:55 | 47.56069 | 3.81312 | 32205 ft | 481 kts | 335° |
| 2026-04-14 10:56 | 47.62283 | 3.77574 | 32211 ft | 482 kts | 335° |
| 2026-04-14 10:56 | 47.68508 | 3.73815 | 32210 ft | 483 kts | 335° |
| 2026-04-14 10:57 | 47.74741 | 3.70045 | 32212 ft | 484 kts | 335° |
| 2026-04-14 10:57 | 47.80953 | 3.66280 | 32208 ft | 485 kts | 335° |
| 2026-04-14 10:58 | 47.87220 | 3.62475 | 32207 ft | 486 kts | 335° |
| 2026-04-14 10:58 | 47.93448 | 3.58689 | 32201 ft | 487 kts | 335° |
| 2026-04-14 10:59 | 47.99728 | 3.54856 | 32201 ft | 488 kts | 335° |
| 2026-04-14 10:59 | 48.06033 | 3.50977 | 32201 ft | 489 kts | 334° |
| 2026-04-14 11:00 | 48.12335 | 3.47084 | 32205 ft | 490 kts | 334° |
| 2026-04-14 11:00 | 48.18651 | 3.43180 | 32201 ft | 491 kts | 334° |
| 2026-04-14 11:01 | 48.24945 | 3.39288 | 32205 ft | 493 kts | 334° |
| 2026-04-14 11:01 | 48.31303 | 3.35340 | 32198 ft | 494 kts | 334° |
| 2026-04-14 11:02 | 48.37670 | 3.31378 | 32213 ft | 495 kts | 334° |
| 2026-04-14 11:02 | 48.43996 | 3.27414 | 32203 ft | 496 kts | 334° |
| 2026-04-14 11:03 | 48.50371 | 3.23350 | 32207 ft | 497 kts | 333° |
| 2026-04-14 11:03 | 48.56748 | 3.19242 | 32210 ft | 498 kts | 333° |
| 2026-04-14 11:04 | 48.63140 | 3.15134 | 32199 ft | 499 kts | 333° |
| 2026-04-14 11:04 | 48.69534 | 3.11067 | 32257 ft | 502 kts | 333° |
| 2026-04-14 11:05 | 48.76000 | 3.07004 | 32398 ft | 502 kts | 334° |
| 2026-04-14 11:05 | 48.79238 | 3.04989 | 32509 ft | 502 kts | 334° |
| 2026-04-14 11:05 | 48.82478 | 3.02987 | 32642 ft | 501 kts | 334° |
| 2026-04-14 11:05 | 48.85710 | 3.01004 | 32794 ft | 501 kts | 334° |
| 2026-04-14 11:06 | 48.88943 | 2.99036 | 32962 ft | 500 kts | 334° |
| 2026-04-14 11:06 | 48.92128 | 2.97111 | 33143 ft | 498 kts | 334° |
| 2026-04-14 11:06 | 48.95352 | 2.95178 | 33375 ft | 497 kts | 334° |
| 2026-04-14 11:06 | 48.98572 | 2.93261 | 33606 ft | 495 kts | 334° |
| 2026-04-14 11:07 | 49.01777 | 2.91368 | 33855 ft | 493 kts | 334° |
| 2026-04-14 11:07 | 49.04978 | 2.89494 | 34130 ft | 490 kts | 334° |
| 2026-04-14 11:07 | 49.08162 | 2.87645 | 34386 ft | 487 kts | 334° |
| 2026-04-14 11:07 | 49.11254 | 2.85625 | 34568 ft | 479 kts | 323° |
| 2026-04-14 11:08 | 49.13791 | 2.82590 | 34282 ft | 465 kts | 308° |
| 2026-04-14 11:08 | 49.16033 | 2.79002 | 33209 ft | 469 kts | 307° |
| 2026-04-14 11:08 | 49.18286 | 2.75368 | 32522 ft | 471 kts | 307° |
| 2026-04-14 11:08 | 49.20557 | 2.71697 | 32285 ft | 478 kts | 307° |
| 2026-04-14 11:09 | 49.22913 | 2.68062 | 32183 ft | 485 kts | 314° |
| 2026-04-14 11:09 | 49.25713 | 2.65096 | 32218 ft | 495 kts | 325° |
| 2026-04-14 11:09 | 49.28702 | 2.62442 | 32212 ft | 496 kts | 325° |
| 2026-04-14 11:10 | 49.37632 | 2.54511 | 32213 ft | 496 kts | 325° |
| 2026-04-14 11:10 | 49.43600 | 2.49169 | 32216 ft | 497 kts | 324° |
| 2026-04-14 11:11 | 49.49574 | 2.43804 | 32215 ft | 496 kts | 324° |
| 2026-04-14 11:11 | 49.55571 | 2.38505 | 32222 ft | 497 kts | 326° |
| 2026-04-14 11:12 | 49.61663 | 2.33408 | 32221 ft | 497 kts | 327° |
| 2026-04-14 11:12 | 49.67729 | 2.28365 | 32222 ft | 497 kts | 327° |
| 2026-04-14 11:13 | 49.73803 | 2.23222 | 32220 ft | 496 kts | 326° |
| 2026-04-14 11:13 | 49.79798 | 2.18080 | 32219 ft | 496 kts | 326° |
| 2026-04-14 11:14 | 49.85826 | 2.12894 | 32216 ft | 495 kts | 326° |
| 2026-04-14 11:14 | 49.91856 | 2.07720 | 32217 ft | 495 kts | 326° |
| 2026-04-14 11:15 | 49.97882 | 2.02545 | 32216 ft | 494 kts | 326° |
| 2026-04-14 11:15 | 50.03852 | 1.97397 | 32211 ft | 493 kts | 326° |
| 2026-04-14 11:16 | 50.09853 | 1.92209 | 32208 ft | 492 kts | 326° |
| 2026-04-14 11:16 | 50.15808 | 1.86946 | 32208 ft | 489 kts | 322° |
| 2026-04-14 11:17 | 50.20912 | 1.80156 | 32209 ft | 479 kts | 310° |
| 2026-04-14 11:17 | 50.25647 | 1.72917 | 32212 ft | 479 kts | 310° |
| 2026-04-14 11:18 | 50.30417 | 1.65635 | 32214 ft | 478 kts | 311° |
| 2026-04-14 11:18 | 50.35169 | 1.58373 | 32219 ft | 477 kts | 311° |
| 2026-04-14 11:19 | 50.39875 | 1.51153 | 32221 ft | 475 kts | 311° |
| 2026-04-14 11:19 | 50.44585 | 1.43882 | 32223 ft | 474 kts | 311° |
| 2026-04-14 11:20 | 50.49277 | 1.36608 | 32218 ft | 472 kts | 311° |
| 2026-04-14 11:20 | 50.53819 | 1.29180 | 32220 ft | 469 kts | 308° |
| 2026-04-14 11:21 | 50.58179 | 1.21638 | 32213 ft | 467 kts | 309° |
| 2026-04-14 11:21 | 50.62680 | 1.14255 | 32216 ft | 467 kts | 311° |
| 2026-04-14 11:22 | 50.67285 | 1.07096 | 32211 ft | 466 kts | 312° |
| 2026-04-14 11:22 | 50.71905 | 0.99907 | 32213 ft | 465 kts | 311° |
| 2026-04-14 11:23 | 50.76467 | 0.92666 | 32213 ft | 463 kts | 311° |
| 2026-04-14 11:23 | 50.80971 | 0.85463 | 32217 ft | 462 kts | 311° |
| 2026-04-14 11:24 | 50.85468 | 0.78237 | 32220 ft | 460 kts | 311° |
| 2026-04-14 11:24 | 50.89960 | 0.71019 | 32212 ft | 459 kts | 311° |
| 2026-04-14 11:25 | 50.94408 | 0.63865 | 32207 ft | 457 kts | 312° |
| 2026-04-14 11:25 | 50.98867 | 0.56668 | 32096 ft | 456 kts | 312° |
| 2026-04-14 11:26 | 51.03297 | 0.49495 | 32065 ft | 454 kts | 312° |
| 2026-04-14 11:26 | 51.07725 | 0.42337 | 32028 ft | 453 kts | 313° |
| 2026-04-14 11:27 | 51.12250 | 0.35376 | 32018 ft | 452 kts | 314° |
| 2026-04-14 11:27 | 51.16790 | 0.28551 | 32026 ft | 450 kts | 314° |
| 2026-04-14 11:28 | 51.21296 | 0.21690 | 32046 ft | 449 kts | 314° |
| 2026-04-14 11:28 | 51.23544 | 0.18239 | 32162 ft | 449 kts | 314° |
| 2026-04-14 11:28 | 51.25796 | 0.14767 | 32158 ft | 448 kts | 314° |
| 2026-04-14 11:29 | 51.30265 | 0.07855 | 32150 ft | 446 kts | 314° |
| 2026-04-14 11:29 | 51.32540 | 0.04489 | 31894 ft | 444 kts | 319° |
| 2026-04-14 11:29 | 51.35049 | 0.01613 | 31306 ft | 435 kts | 325° |
| 2026-04-14 11:30 | 51.37464 | -0.00865 | 32180 ft | 406 kts | 326° |
| 2026-04-14 11:30 | 51.39848 | -0.03201 | 32688 ft | 400 kts | 328° |
| 2026-04-14 11:30 | 51.42241 | -0.05429 | 32423 ft | 394 kts | 328° |
| 2026-04-14 11:30 | 51.44616 | -0.07587 | 32156 ft | 391 kts | 328° |
| 2026-04-14 11:31 | 51.46984 | -0.09746 | 31898 ft | 391 kts | 328° |
| 2026-04-14 11:31 | 51.49345 | -0.11933 | 31653 ft | 392 kts | 328° |
| 2026-04-14 11:31 | 51.51700 | -0.14152 | 31394 ft | 393 kts | 327° |
| 2026-04-14 11:31 | 51.54058 | -0.16398 | 31141 ft | 395 kts | 327° |
| 2026-04-14 11:32 | 51.56424 | -0.18670 | 30877 ft | 396 kts | 327° |
| 2026-04-14 11:32 | 51.58759 | -0.20923 | 30280 ft | 398 kts | 326° |
| 2026-04-14 11:32 | 51.61145 | -0.23222 | 29315 ft | 400 kts | 326° |
| 2026-04-14 11:32 | 51.63537 | -0.25518 | 28567 ft | 401 kts | 326° |
| 2026-04-14 11:33 | 51.65965 | -0.27851 | 28291 ft | 408 kts | 326° |
| 2026-04-14 11:33 | 51.68423 | -0.30220 | 28023 ft | 412 kts | 326° |
| 2026-04-14 11:33 | 51.70889 | -0.32600 | 27759 ft | 414 kts | 326° |
| 2026-04-14 11:34 | 51.75828 | -0.37367 | 27247 ft | 417 kts | 326° |
| 2026-04-14 11:34 | 51.78325 | -0.39781 | 26984 ft | 419 kts | 326° |
| 2026-04-14 11:34 | 51.80835 | -0.42211 | 26726 ft | 420 kts | 326° |
| 2026-04-14 11:34 | 51.83360 | -0.44660 | 26480 ft | 422 kts | 326° |
| 2026-04-14 11:35 | 51.85854 | -0.47081 | 26241 ft | 424 kts | 326° |
| 2026-04-14 11:35 | 51.88384 | -0.49542 | 25989 ft | 425 kts | 326° |
| 2026-04-14 11:35 | 51.90926 | -0.52016 | 25470 ft | 425 kts | 326° |
| 2026-04-14 11:35 | 51.93478 | -0.54502 | 24402 ft | 430 kts | 326° |
| 2026-04-14 11:36 | 51.95179 | -0.56160 | 23777 ft | 431 kts | 326° |
| 2026-04-14 11:36 | 51.97749 | -0.58666 | 22930 ft | 429 kts | 326° |
| 2026-04-14 11:36 | 52.01109 | -0.61942 | 22025 ft | 420 kts | 326° |
| 2026-04-14 11:36 | 52.03592 | -0.64369 | 21364 ft | 414 kts | 326° |
| 2026-04-14 11:37 | 52.05255 | -0.66000 | 20931 ft | 411 kts | 326° |
| 2026-04-14 11:37 | 52.07688 | -0.68395 | 20289 ft | 406 kts | 326° |
| 2026-04-14 11:37 | 52.10088 | -0.70767 | 19654 ft | 401 kts | 326° |
| 2026-04-14 11:37 | 52.12433 | -0.73082 | 19051 ft | 398 kts | 327° |
| 2026-04-14 11:38 | 52.14802 | -0.75422 | 18434 ft | 397 kts | 327° |
| 2026-04-14 11:38 | 52.17158 | -0.77748 | 17689 ft | 395 kts | 327° |
| 2026-04-14 11:38 | 52.19497 | -0.80056 | 17116 ft | 392 kts | 326° |
| 2026-04-14 11:38 | 52.21657 | -0.82715 | 16542 ft | 387 kts | 315° |
| 2026-04-14 11:39 | 52.23460 | -0.85940 | 15982 ft | 382 kts | 305° |
| 2026-04-14 11:39 | 52.24864 | -0.89594 | 15421 ft | 378 kts | 295° |
| 2026-04-14 11:39 | 52.25845 | -0.93548 | 14896 ft | 374 kts | 285° |
| 2026-04-14 11:39 | 52.26456 | -0.97671 | 14373 ft | 372 kts | 281° |
| 2026-04-14 11:40 | 52.27018 | -1.01782 | 13872 ft | 370 kts | 281° |
| 2026-04-14 11:40 | 52.27579 | -1.05874 | 13330 ft | 367 kts | 281° |
| 2026-04-14 11:40 | 52.28134 | -1.09929 | 12851 ft | 365 kts | 280° |
| 2026-04-14 11:40 | 52.28679 | -1.13918 | 12372 ft | 363 kts | 280° |
| 2026-04-14 11:41 | 52.29227 | -1.17944 | 11871 ft | 361 kts | 280° |
| 2026-04-14 11:41 | 52.29770 | -1.21949 | 11413 ft | 357 kts | 280° |
| 2026-04-14 11:41 | 52.30294 | -1.25821 | 11273 ft | 341 kts | 280° |
| 2026-04-14 11:41 | 52.30793 | -1.29527 | 11147 ft | 326 kts | 279° |
| 2026-04-14 11:42 | 52.31266 | -1.33064 | 11021 ft | 311 kts | 279° |
| 2026-04-14 11:42 | 52.31719 | -1.36451 | 10897 ft | 298 kts | 279° |
| 2026-04-14 11:42 | 52.32155 | -1.39695 | 10732 ft | 287 kts | 279° |
| 2026-04-14 11:42 | 52.32574 | -1.42857 | 10458 ft | 282 kts | 279° |
| 2026-04-14 11:43 | 52.32979 | -1.45931 | 10154 ft | 279 kts | 279° |
| 2026-04-14 11:43 | 52.33392 | -1.49062 | 9733 ft | 277 kts | 278° |
| 2026-04-14 11:43 | 52.33796 | -1.52133 | 9309 ft | 276 kts | 279° |
| 2026-04-14 11:43 | 52.34199 | -1.55185 | 9068 ft | 274 kts | 278° |
| 2026-04-14 11:44 | 52.34600 | -1.58246 | 9078 ft | 276 kts | 278° |
| 2026-04-14 11:44 | 52.35008 | -1.61269 | 9082 ft | 277 kts | 280° |
| 2026-04-14 11:44 | 52.35470 | -1.64325 | 9084 ft | 276 kts | 281° |
| 2026-04-14 11:44 | 52.35941 | -1.67379 | 9087 ft | 276 kts | 280° |
| 2026-04-14 11:45 | 52.36411 | -1.70433 | 9084 ft | 276 kts | 281° |
| 2026-04-14 11:45 | 52.36881 | -1.73470 | 8777 ft | 274 kts | 281° |
| 2026-04-14 11:45 | 52.37350 | -1.76488 | 8352 ft | 273 kts | 281° |
| 2026-04-14 11:45 | 52.37963 | -1.79431 | 7937 ft | 276 kts | 297° |
| 2026-04-14 11:46 | 52.39283 | -1.81734 | 7535 ft | 282 kts | 323° |
| 2026-04-14 11:46 | 52.41007 | -1.83313 | 7152 ft | 283 kts | 328° |
| 2026-04-14 11:46 | 52.42695 | -1.84896 | 7072 ft | 283 kts | 326° |
| 2026-04-14 11:46 | 52.44390 | -1.86540 | 6755 ft | 282 kts | 326° |
| 2026-04-14 11:47 | 52.46077 | -1.88179 | 6333 ft | 281 kts | 325° |
| 2026-04-14 11:47 | 52.47762 | -1.89807 | 5903 ft | 280 kts | 326° |
| 2026-04-14 11:47 | 52.49442 | -1.91426 | 5471 ft | 280 kts | 325° |
| 2026-04-14 11:47 | 52.51105 | -1.93019 | 5241 ft | 271 kts | 325° |
| 2026-04-14 11:48 | 52.52704 | -1.94534 | 5109 ft | 260 kts | 325° |
| 2026-04-14 11:48 | 52.54250 | -1.95984 | 4805 ft | 253 kts | 325° |
| 2026-04-14 11:48 | 52.55787 | -1.97386 | 4317 ft | 252 kts | 331° |
| 2026-04-14 11:48 | 52.57491 | -1.97925 | 3751 ft | 258 kts | 4° |
| 2026-04-14 11:49 | 52.59123 | -1.96967 | 3500 ft | 240 kts | 40° |
| 2026-04-14 11:49 | 52.60086 | -1.94972 | 3370 ft | 211 kts | 77° |
| 2026-04-14 11:49 | 52.60205 | -1.92749 | 3224 ft | 185 kts | 110° |
| 2026-04-14 11:49 | 52.59685 | -1.90956 | 3041 ft | 169 kts | 138° |
| 2026-04-14 11:50 | 52.58793 | -1.89781 | 3004 ft | 164 kts | 152° |
| 2026-04-14 11:50 | 52.57852 | -1.88726 | 2996 ft | 164 kts | 151° |
| 2026-04-14 11:50 | 52.56920 | -1.87682 | 2865 ft | 164 kts | 151° |
| 2026-04-14 11:51 | 52.55050 | -1.85589 | 2466 ft | 162 kts | 150° |
| 2026-04-14 11:51 | 52.54123 | -1.84551 | 2249 ft | 159 kts | 150° |
| 2026-04-14 11:51 | 52.53240 | -1.83562 | 2045 ft | 147 kts | 149° |
| 2026-04-14 11:51 | 52.52409 | -1.82634 | 1851 ft | 142 kts | 149° |
| 2026-04-14 11:52 | 52.51599 | -1.81730 | 1652 ft | 140 kts | 148° |
| 2026-04-14 11:52 | 52.50800 | -1.80838 | 1464 ft | 138 kts | 148° |
| 2026-04-14 11:52 | 52.49996 | -1.79939 | 1251 ft | 140 kts | 148° |
| 2026-04-14 11:52 | 52.49198 | -1.79035 | 1030 ft | 139 kts | 148° |
| 2026-04-14 11:53 | 52.48392 | -1.78150 | 837 ft | 140 kts | 148° |
| 2026-04-14 11:53 | 52.47604 | -1.77269 | 667 ft | 139 kts | 146° |
| 2026-04-14 11:53 | 52.46795 | -1.76371 | 455 ft | 140 kts | 147° |
| 2026-04-14 11:53 | 52.45997 | -1.75479 | 316 ft | 133 kts | 147° |
| 2026-04-14 11:54 | 52.45413 | -1.74833 | 325 ft | 59 kts | 146° |
| 2026-04-14 11:54 | 52.45172 | -1.74560 | 327 ft | 38 kts | 146° |
| 2026-04-14 11:54 | 52.44983 | -1.74355 | 326 ft | 23 kts | 147° |
| 2026-04-14 11:54 | 52.44955 | -1.74189 | 325 ft | 15 kts | 74° |
| 2026-04-14 11:55 | 52.44982 | -1.74023 | 323 ft | 17 kts | 76° |
| 2026-04-14 11:55 | 52.45027 | -1.73853 | 323 ft | 16 kts | 56° |
| 2026-04-14 11:55 | 52.45109 | -1.73787 | 323 ft | 14 kts | 334° |
| 2026-04-14 11:55 | 52.45185 | -1.73868 | 322 ft | 12 kts | 326° |
| 2026-04-14 11:56 | 52.45251 | -1.73941 | 323 ft | 11 kts | 326° |
| 2026-04-14 11:56 | 52.45311 | -1.73973 | 323 ft | 8 kts | 24° |
| 2026-04-14 11:56 | 52.45310 | -1.73917 | 323 ft | 5 kts | 129° |
| 2026-04-14 11:56 | 52.45289 | -1.73880 | 323 ft | 4 kts | 134° |
| 2026-04-14 11:57 | 52.45271 | -1.73851 | 323 ft | 3 kts | 135° |
| 2026-04-14 11:57 | 52.45264 | -1.73840 | 323 ft | 1 kts | 136° |
| 2026-04-14 11:57 | 52.45263 | -1.73839 | 323 ft | 0 kts | 136° |